createdAt,value
2022-11-20T00:01:31.992Z,1.66
2022-11-20T00:03:59.883Z,1.62
2022-11-20T00:06:28.619Z,1.58
2022-11-20T00:08:59.662Z,1.54
2022-11-20T00:11:29.551Z,1.52
2022-11-20T00:14:00.483Z,1.48
2022-11-20T00:16:31.824Z,1.40
2022-11-20T00:18:58.810Z,1.40
2022-11-20T00:21:31.171Z,1.34
2022-11-20T00:23:58.927Z,1.33
2022-11-20T00:26:27.660Z,1.32
2022-11-20T00:28:57.696Z,1.32
2022-11-20T00:31:25.409Z,1.29
2022-11-20T00:33:53.099Z,1.26
2022-11-20T00:36:23.624Z,1.24
2022-11-20T00:38:59.510Z,1.24
2022-11-20T00:41:29.352Z,1.17
2022-11-20T00:43:57.456Z,1.18
2022-11-20T00:46:27.884Z,1.14
2022-11-20T00:48:54.993Z,1.12
2022-11-20T00:51:25.655Z,1.14
2022-11-20T00:53:52.807Z,1.12
2022-11-20T00:56:21.067Z,1.12
2022-11-20T00:58:50.135Z,1.12
2022-11-20T01:01:21.540Z,1.11
2022-11-20T01:03:51.594Z,1.10
2022-11-20T01:06:26.891Z,1.09
2022-11-20T01:08:57.754Z,1.11
2022-11-20T01:11:31.680Z,1.09
2022-11-20T01:14:02.213Z,1.09
2022-11-20T01:16:36.255Z,1.15
2022-11-20T01:19:06.792Z,1.22
2022-11-20T01:21:38.537Z,1.28
2022-11-20T01:24:08.927Z,1.37
2022-11-20T01:26:38.889Z,1.44
2022-11-20T01:29:07.203Z,1.51
2022-11-20T01:31:38.194Z,1.57
2022-11-20T01:34:16.377Z,1.63
2022-11-20T01:36:49.873Z,1.76
2022-11-20T01:39:23.878Z,1.81
2022-11-20T01:42:14.549Z,1.83
2022-11-20T01:45:01.111Z,1.86
2022-11-20T01:47:51.119Z,1.87
2022-11-20T01:50:29.940Z,1.90
2022-11-20T01:53:15.534Z,1.91
2022-11-20T01:56:14.740Z,1.91
2022-11-20T01:58:58.014Z,1.91
2022-11-20T02:01:37.455Z,1.88
2022-11-20T02:04:05.685Z,1.84
2022-11-20T02:06:45.655Z,1.80
2022-11-20T02:09:16.583Z,1.76
2022-11-20T02:11:54.423Z,1.76
2022-11-20T02:14:23.963Z,1.74
2022-11-20T02:16:55.711Z,1.73
2022-11-20T02:19:33.578Z,1.73
2022-11-20T02:22:30.126Z,1.75
2022-11-20T02:25:04.424Z,1.75
2022-11-20T02:27:31.841Z,1.76
2022-11-20T02:30:05.057Z,1.80
2022-11-20T02:32:36.287Z,1.79
2022-11-20T02:35:21.559Z,1.83
2022-11-20T02:37:54.115Z,1.87
2022-11-20T02:40:21.874Z,1.89
2022-11-20T02:42:53.346Z,1.92
2022-11-20T02:45:21.401Z,1.93
2022-11-20T02:47:48.947Z,1.91
2022-11-20T02:50:18.032Z,1.97
2022-11-20T02:52:45.782Z,1.96
2022-11-20T02:55:13.155Z,2.02
2022-11-20T02:57:40.703Z,2.03
2022-11-20T03:00:20.693Z,2.05
2022-11-20T03:02:49.052Z,2.11
2022-11-20T03:05:27.414Z,2.10
2022-11-20T03:07:57.598Z,2.11
2022-11-20T03:10:28.225Z,2.07
2022-11-20T03:18:53.984Z,2.15
2022-11-20T03:22:02.223Z,2.16
2022-11-20T03:24:41.858Z,2.17
2022-11-20T03:27:18.744Z,2.19
2022-11-20T03:29:46.373Z,2.22
2022-11-20T03:32:23.483Z,2.22
2022-11-20T03:34:59.429Z,2.23
2022-11-20T03:37:30.581Z,2.24
2022-11-20T03:39:58.410Z,2.23
2022-11-20T03:42:47.093Z,2.20
2022-11-20T03:45:40.135Z,2.26
2022-11-20T03:48:31.878Z,2.23
2022-11-20T03:51:37.738Z,2.24
2022-11-20T03:54:23.402Z,2.25
2022-11-20T03:57:19.750Z,2.28
2022-11-20T04:00:08.082Z,2.30
2022-11-20T04:03:07.615Z,2.32
2022-11-20T04:06:22.869Z,2.34
2022-11-20T04:09:45.030Z,2.34
2022-11-20T04:15:53.095Z,2.34
2022-11-20T04:18:25.983Z,2.36
2022-11-20T04:20:53.808Z,2.36
2022-11-20T04:23:27.357Z,2.38
2022-11-20T04:25:56.514Z,2.42
2022-11-20T04:28:24.799Z,2.43
2022-11-20T04:30:54.960Z,2.46
2022-11-20T04:33:28.980Z,2.47
2022-11-20T04:36:13.017Z,2.49
2022-11-20T04:38:41.519Z,2.49
2022-11-20T04:41:16.198Z,2.49
2022-11-20T04:43:51.475Z,2.50
2022-11-20T04:46:21.131Z,2.50
2022-11-20T04:48:49.630Z,2.51
2022-11-20T04:51:23.051Z,2.51
2022-11-20T04:53:54.030Z,2.52
2022-11-20T04:56:35.483Z,2.51
2022-11-20T05:02:20.685Z,2.47
2022-11-20T05:04:48.732Z,2.46
2022-11-20T05:07:23.435Z,2.46
2022-11-20T05:09:51.876Z,2.45
2022-11-20T05:15:04.368Z,2.43
2022-11-20T05:17:31.975Z,2.41
2022-11-20T05:19:59.941Z,2.38
2022-11-20T05:22:36.268Z,2.36
2022-11-20T05:25:04.241Z,2.36
2022-11-20T05:27:33.091Z,2.35
2022-11-20T05:30:06.024Z,2.35
2022-11-20T05:32:33.636Z,2.37
2022-11-20T05:35:01.194Z,2.39
2022-11-20T05:37:38.321Z,2.40
2022-11-20T05:40:06.972Z,2.40
2022-11-20T05:42:35.297Z,2.43
2022-11-20T05:45:05.972Z,2.38
2022-11-20T05:47:36.776Z,2.34
2022-11-20T05:50:10.416Z,2.35
2022-11-20T05:52:42.848Z,2.37
2022-11-20T05:55:11.037Z,2.41
2022-11-20T05:58:08.890Z,2.44
2022-11-20T06:00:36.503Z,2.48
2022-11-20T06:03:04.676Z,2.48
2022-11-20T06:05:38.325Z,2.51
2022-11-20T06:08:09.142Z,2.51
2022-11-20T06:10:37.063Z,2.52
2022-11-20T06:13:15.561Z,2.56
2022-11-20T06:15:43.136Z,2.60
2022-11-20T06:18:13.430Z,2.63
2022-11-20T06:23:22.591Z,2.64
2022-11-20T06:25:52.620Z,2.65
2022-11-20T06:28:23.493Z,2.65
2022-11-20T06:30:53.970Z,2.66
2022-11-20T06:33:21.673Z,2.68
2022-11-20T06:35:49.062Z,2.69
2022-11-20T06:38:18.824Z,2.65
2022-11-20T06:40:49.442Z,2.65
2022-11-20T06:43:21.909Z,2.67
2022-11-20T06:45:58.340Z,2.65
2022-11-20T06:48:29.104Z,2.67
2022-11-20T06:51:00.472Z,2.69
2022-11-20T06:53:31.229Z,2.69
2022-11-20T06:55:58.923Z,2.70
2022-11-20T06:58:30.043Z,2.71
2022-11-20T07:01:04.044Z,2.73
2022-11-20T07:03:31.797Z,2.73
2022-11-20T07:06:01.025Z,2.74
2022-11-20T07:08:28.846Z,2.76
2022-11-20T07:11:04.794Z,2.76
2022-11-20T07:13:33.381Z,2.76
2022-11-20T07:16:07.814Z,2.80
2022-11-20T07:18:35.537Z,2.82
2022-11-20T07:21:09.644Z,2.81
2022-11-20T07:23:38.061Z,2.80
2022-11-20T07:26:11.878Z,2.78
2022-11-20T07:28:45.958Z,2.76
2022-11-20T07:31:19.460Z,2.76
2022-11-20T07:33:50.495Z,2.76
2022-11-20T07:36:18.106Z,2.76
2022-11-20T07:38:45.990Z,2.76
2022-11-20T07:41:13.744Z,2.77
2022-11-20T07:43:41.659Z,2.80
2022-11-20T07:46:09.590Z,2.87
2022-11-20T07:48:36.837Z,2.89
2022-11-20T07:51:04.334Z,2.90
2022-11-20T07:53:31.451Z,2.96
2022-11-20T07:56:02.379Z,3.07
2022-11-20T07:58:30.979Z,3.14
2022-11-20T08:00:58.021Z,3.20
2022-11-20T08:03:25.888Z,3.27
2022-11-20T08:05:53.535Z,3.36
2022-11-20T08:08:21.409Z,3.44
2022-11-20T08:10:48.400Z,3.48
2022-11-20T08:13:34.085Z,3.54
2022-11-20T08:16:01.037Z,3.65
2022-11-20T08:18:31.582Z,3.74
2022-11-20T08:21:04.048Z,3.80
2022-11-20T08:23:31.248Z,3.80
2022-11-20T08:25:58.476Z,3.82
2022-11-20T08:28:25.559Z,3.85
2022-11-20T08:30:58.241Z,3.85
2022-11-20T08:33:25.351Z,3.90
2022-11-20T08:35:52.530Z,3.94
2022-11-20T08:38:19.713Z,3.99
2022-11-20T08:41:06.770Z,4.01
2022-11-20T08:43:34.678Z,4.03
2022-11-20T08:46:01.977Z,4.06
2022-11-20T08:48:29.168Z,4.12
2022-11-20T08:51:00.546Z,4.30
2022-11-20T08:53:28.884Z,4.38
2022-11-20T08:55:57.337Z,4.44
2022-11-20T08:58:24.346Z,4.53
2022-11-20T09:00:51.858Z,4.58
2022-11-20T09:03:18.889Z,4.63
2022-11-20T09:05:46.050Z,4.70
2022-11-20T09:08:13.197Z,4.68
2022-11-20T09:10:43.068Z,4.78
2022-11-20T09:13:11.193Z,4.79
2022-11-20T09:15:38.190Z,4.83
2022-11-20T09:18:06.054Z,4.85
2022-11-20T09:20:33.502Z,4.86
2022-11-20T09:23:00.574Z,4.89
2022-11-20T09:25:27.965Z,4.89
2022-11-20T09:27:59.504Z,4.93
2022-11-20T09:30:27.927Z,4.96
2022-11-20T09:32:55.145Z,4.98
2022-11-20T09:35:22.570Z,5.02
2022-11-20T09:37:49.941Z,5.03
2022-11-20T09:40:28.030Z,5.12
2022-11-20T09:43:43.722Z,5.13
2022-11-20T09:46:50.480Z,5.17
2022-11-20T09:49:41.948Z,5.29
2022-11-20T09:52:53.236Z,5.36
2022-11-20T09:55:20.762Z,5.40
2022-11-20T09:57:51.976Z,5.42
2022-11-20T10:00:22.231Z,5.45
2022-11-20T10:03:25.688Z,5.52
2022-11-20T10:05:55.347Z,5.57
2022-11-20T10:09:15.293Z,5.65
2022-11-20T10:12:33.089Z,5.74
2022-11-20T10:15:26.635Z,5.93
2022-11-20T10:18:23.225Z,6.11
2022-11-20T10:21:14.225Z,6.27
2022-11-20T10:24:02.953Z,6.41
2022-11-20T10:26:50.785Z,6.47
2022-11-20T10:29:23.120Z,6.51
2022-11-20T10:32:03.402Z,6.55
2022-11-20T10:34:45.408Z,6.58
2022-11-20T10:37:35.011Z,6.63
2022-11-20T10:40:36.010Z,6.65
2022-11-20T10:43:34.393Z,6.64
2022-11-20T10:46:11.622Z,6.56
2022-11-20T10:48:43.446Z,6.51
2022-11-20T10:51:36.810Z,6.54
2022-11-20T10:54:12.690Z,6.60
2022-11-20T10:56:50.763Z,6.64
2022-11-20T10:59:49.681Z,6.67
2022-11-20T11:02:21.275Z,6.53
2022-11-20T11:04:52.550Z,6.55
2022-11-20T11:07:36.329Z,6.49
2022-11-20T11:10:27.471Z,6.45
2022-11-20T11:12:54.480Z,6.41
2022-11-20T11:15:42.343Z,6.41
2022-11-20T11:18:12.818Z,6.39
2022-11-20T11:20:40.451Z,6.37
2022-11-20T11:23:31.860Z,6.38
2022-11-20T11:26:01.977Z,6.34
2022-11-20T11:28:30.301Z,6.25
2022-11-20T11:30:57.770Z,6.23
2022-11-20T11:33:37.006Z,6.24
2022-11-20T11:36:25.782Z,6.25
2022-11-20T11:38:54.907Z,6.30
2022-11-20T11:41:28.105Z,6.35
2022-11-20T11:44:32.277Z,6.37
2022-11-20T11:46:59.828Z,6.39
2022-11-20T11:49:26.983Z,6.44
2022-11-20T11:52:14.956Z,6.45
2022-11-20T11:54:56.588Z,6.43
2022-11-20T11:57:55.494Z,6.42
2022-11-20T12:00:23.894Z,6.44
2022-11-20T12:03:09.474Z,6.54
2022-11-20T12:06:10.287Z,6.59
2022-11-20T12:08:49.911Z,6.66
2022-11-20T12:11:51.156Z,6.68
2022-11-20T12:14:33.178Z,6.69
2022-11-20T12:17:01.758Z,6.70
2022-11-20T12:19:34.367Z,6.76
2022-11-20T12:22:22.239Z,6.88
2022-11-20T12:25:01.130Z,6.96
2022-11-20T12:27:49.851Z,7.11
2022-11-20T12:30:22.289Z,7.22
2022-11-20T12:33:04.036Z,7.30
2022-11-20T12:35:48.775Z,7.35
2022-11-20T12:38:49.440Z,7.40
2022-11-20T12:42:05.898Z,7.38
2022-11-20T12:45:15.427Z,7.49
2022-11-20T12:48:04.063Z,7.50
2022-11-20T12:51:13.432Z,7.48
2022-11-20T12:54:26.439Z,7.52
2022-11-20T12:57:20.628Z,7.63
2022-11-20T13:00:21.334Z,7.67
2022-11-20T13:03:11.494Z,7.67
2022-11-20T13:05:59.456Z,7.74
2022-11-20T13:08:50.056Z,7.79
2022-11-20T13:11:43.446Z,7.77
2022-11-20T13:14:40.008Z,7.68
2022-11-20T13:17:56.838Z,7.65
2022-11-20T13:20:24.154Z,7.67
2022-11-20T13:22:58.195Z,7.72
2022-11-20T13:25:36.175Z,7.80
2022-11-20T13:28:11.840Z,7.85
2022-11-20T13:30:52.371Z,7.87
2022-11-20T13:33:39.308Z,7.89
2022-11-20T13:36:29.184Z,7.89
2022-11-20T13:39:00.087Z,7.87
2022-11-20T13:41:35.240Z,7.86
2022-11-20T13:44:27.685Z,7.83
2022-11-20T13:46:54.768Z,7.79
2022-11-20T13:49:33.586Z,7.74
2022-11-20T13:52:25.468Z,7.71
2022-11-20T13:55:35.001Z,7.69
2022-11-20T13:58:39.347Z,7.66
2022-11-20T14:01:22.804Z,7.65
2022-11-20T14:04:06.678Z,7.66
2022-11-20T14:06:47.590Z,7.65
2022-11-20T14:09:30.337Z,7.58
2022-11-20T14:11:58.170Z,7.54
2022-11-20T14:14:29.035Z,7.51
2022-11-20T14:17:19.707Z,7.45
2022-11-20T14:19:50.548Z,7.39
2022-11-20T14:22:25.768Z,7.34
2022-11-20T14:25:07.972Z,7.29
2022-11-20T14:27:41.837Z,7.24
2022-11-20T14:30:25.612Z,7.20
2022-11-20T14:32:56.638Z,7.16
2022-11-20T14:35:30.973Z,7.12
2022-11-20T14:37:59.479Z,7.09
2022-11-20T14:40:37.249Z,7.08
2022-11-20T14:43:26.779Z,6.95
2022-11-20T14:46:15.063Z,6.89
2022-11-20T14:48:46.963Z,6.89
2022-11-20T14:51:42.416Z,6.96
2022-11-20T14:54:17.910Z,7.04
2022-11-20T14:57:02.695Z,7.04
2022-11-20T14:59:35.507Z,7.06
2022-11-20T15:02:11.710Z,7.07
2022-11-20T15:04:58.501Z,7.08
2022-11-20T15:07:32.598Z,7.10
2022-11-20T15:10:11.371Z,7.12
2022-11-20T15:12:57.990Z,7.16
2022-11-20T15:15:36.078Z,7.15
2022-11-20T15:18:05.324Z,7.14
2022-11-20T15:20:37.736Z,7.14
2022-11-20T15:23:15.489Z,7.15
2022-11-20T15:25:43.644Z,7.16
2022-11-20T15:28:29.204Z,7.17
2022-11-20T15:30:57.381Z,7.17
2022-11-20T15:33:24.984Z,7.19
2022-11-20T15:35:59.334Z,7.18
2022-11-20T15:38:26.714Z,7.17
2022-11-20T15:40:53.859Z,7.18
2022-11-20T15:43:20.883Z,7.17
2022-11-20T15:45:57.540Z,7.19
2022-11-20T15:48:37.661Z,7.19
2022-11-20T15:51:27.521Z,7.21
2022-11-20T15:53:56.594Z,7.21
2022-11-20T15:56:23.631Z,7.21
2022-11-20T15:58:50.666Z,7.21
2022-11-20T16:01:21.783Z,7.21
2022-11-20T16:03:49.491Z,7.22
2022-11-20T16:06:19.625Z,7.24
2022-11-20T16:08:47.075Z,7.25
2022-11-20T16:11:16.602Z,7.30
2022-11-20T16:14:02.482Z,7.31
2022-11-20T16:16:35.454Z,7.34
2022-11-20T16:19:02.893Z,7.34
2022-11-20T16:21:32.828Z,7.37
2022-11-20T16:24:04.986Z,7.39
2022-11-20T16:26:32.913Z,7.39
2022-11-20T16:29:01.676Z,7.40
2022-11-20T16:31:28.701Z,7.42
2022-11-20T16:34:03.909Z,7.46
2022-11-20T16:36:35.296Z,7.48
2022-11-20T16:39:04.399Z,7.51
2022-11-20T16:41:36.734Z,7.54
2022-11-20T16:44:10.180Z,7.56
2022-11-20T16:46:38.031Z,7.57
2022-11-20T16:49:11.892Z,7.59
2022-11-20T16:51:38.859Z,7.61
2022-11-20T16:54:09.175Z,7.63
2022-11-20T16:56:36.649Z,7.65
2022-11-20T16:59:04.471Z,7.69
2022-11-20T17:01:32.047Z,7.72
2022-11-20T17:04:05.732Z,7.75
2022-11-20T17:06:40.465Z,7.79
2022-11-20T17:09:10.718Z,7.80
2022-11-20T17:11:38.704Z,7.83
2022-11-20T17:14:08.773Z,7.83
2022-11-20T17:16:37.433Z,7.85
2022-11-20T17:19:05.433Z,7.88
2022-11-20T17:21:36.218Z,7.90
2022-11-20T17:24:08.455Z,7.93
2022-11-20T17:26:37.815Z,7.95
2022-11-20T17:29:10.160Z,7.99
2022-11-20T17:31:40.813Z,7.98
2022-11-20T17:34:11.578Z,8.00
2022-11-20T17:36:45.699Z,8.03
2022-11-20T17:39:15.429Z,8.06
2022-11-20T17:41:42.466Z,8.09
2022-11-20T17:44:11.831Z,8.12
2022-11-20T17:46:39.087Z,8.16
2022-11-20T17:49:06.317Z,8.21
2022-11-20T17:51:35.484Z,8.21
2022-11-20T17:54:07.529Z,8.21
2022-11-20T17:56:54.697Z,8.26
2022-11-20T17:59:21.937Z,8.30
2022-11-20T18:01:49.321Z,8.35
2022-11-20T18:04:17.259Z,8.38
2022-11-20T18:06:44.568Z,8.42
2022-11-20T18:09:12.281Z,8.44
2022-11-20T18:11:41.579Z,8.46
2022-11-20T18:14:32.226Z,8.47
2022-11-20T18:17:14.762Z,8.50
2022-11-20T18:20:01.123Z,8.52
2022-11-20T18:22:32.178Z,8.52
2022-11-20T18:24:59.644Z,8.52
2022-11-20T18:27:26.807Z,8.51
2022-11-20T18:29:53.814Z,8.52
2022-11-20T18:32:22.622Z,8.53
2022-11-20T18:34:50.691Z,8.52
2022-11-20T18:37:18.945Z,8.53
2022-11-20T18:39:46.091Z,8.53
2022-11-20T18:42:34.386Z,8.53
2022-11-20T18:45:04.313Z,8.54
2022-11-20T18:47:37.802Z,8.54
2022-11-20T18:50:07.497Z,8.53
2022-11-20T18:52:40.709Z,8.52
2022-11-20T18:55:10.237Z,8.51
2022-11-20T18:57:37.429Z,8.52
2022-11-20T19:00:09.752Z,8.51
2022-11-20T19:05:24.880Z,8.49
2022-11-20T19:07:52.412Z,8.45
2022-11-20T19:10:20.729Z,8.50
2022-11-20T19:12:47.770Z,8.46
2022-11-20T19:15:14.866Z,8.47
2022-11-20T19:17:41.894Z,8.50
2022-11-20T19:20:09.867Z,8.50
2022-11-20T19:22:36.838Z,8.50
2022-11-20T19:25:04.633Z,8.51
2022-11-20T19:27:31.598Z,8.52
2022-11-20T19:30:03.545Z,8.51
2022-11-20T19:32:31.133Z,8.52
2022-11-20T19:34:58.167Z,8.53
2022-11-20T19:37:25.381Z,8.53
2022-11-20T19:39:52.471Z,8.54
2022-11-20T19:42:20.065Z,8.54
2022-11-20T19:44:51.313Z,8.56
2022-11-20T19:47:19.232Z,8.56
2022-11-20T19:49:46.386Z,8.55
2022-11-20T19:52:13.501Z,8.54
2022-11-20T19:54:40.689Z,8.53
2022-11-20T19:57:07.894Z,8.53
2022-11-20T19:59:34.993Z,8.52
2022-11-20T20:02:03.619Z,8.54
2022-11-20T20:04:30.728Z,8.55
2022-11-20T20:06:57.834Z,8.55
2022-11-20T20:09:26.935Z,8.55
2022-11-20T20:11:54.132Z,8.55
2022-11-20T20:14:23.919Z,8.55
2022-11-20T20:16:50.895Z,8.53
2022-11-20T20:19:18.280Z,8.52
2022-11-20T20:21:50.144Z,8.52
2022-11-20T20:24:17.475Z,8.50
2022-11-20T20:26:44.648Z,8.51
2022-11-20T20:29:11.673Z,8.51
2022-11-20T20:31:40.074Z,8.49
2022-11-20T20:34:07.141Z,8.49
2022-11-20T20:36:34.353Z,8.48
2022-11-20T20:39:02.810Z,8.47
2022-11-20T20:41:30.431Z,8.44
2022-11-20T20:44:16.190Z,8.47
2022-11-20T20:46:43.807Z,8.46
2022-11-20T20:49:10.897Z,8.46
2022-11-20T20:51:38.088Z,8.45
2022-11-20T20:54:05.685Z,8.46
2022-11-20T20:56:32.985Z,8.44
2022-11-20T20:59:00.090Z,8.44
2022-11-20T21:01:30.303Z,8.44
2022-11-20T21:03:57.734Z,8.46
2022-11-20T21:06:25.566Z,8.43
2022-11-20T21:08:52.834Z,8.44
2022-11-20T21:11:20.956Z,8.44
2022-11-20T21:13:48.990Z,8.44
2022-11-20T21:16:18.017Z,8.44
2022-11-20T21:18:45.221Z,8.46
2022-11-20T21:21:33.358Z,8.45
2022-11-20T21:24:00.649Z,8.46
2022-11-20T21:26:27.688Z,8.45
2022-11-20T21:28:56.253Z,8.47
2022-11-20T21:31:26.670Z,8.48
2022-11-20T21:33:56.434Z,8.48
2022-11-20T21:36:27.348Z,8.47
2022-11-20T21:38:56.035Z,8.42
2022-11-20T21:41:26.394Z,8.41
2022-11-20T21:44:28.976Z,8.38
2022-11-20T21:46:44.635Z,8.32
2022-11-20T21:49:12.252Z,8.26
2022-11-20T21:51:39.360Z,8.24
2022-11-20T21:54:06.495Z,8.24
2022-11-20T21:56:33.591Z,8.21
2022-11-20T21:59:00.674Z,8.20
2022-11-20T22:01:31.248Z,8.17
2022-11-20T22:04:02.215Z,8.18
2022-11-20T22:06:34.360Z,8.16
2022-11-20T22:09:02.907Z,8.15
2022-11-20T22:11:30.386Z,8.12
2022-11-20T22:14:16.321Z,8.11
2022-11-20T22:16:43.508Z,8.08
2022-11-20T22:19:10.692Z,8.06
2022-11-20T22:21:40.588Z,8.05
2022-11-20T22:24:12.125Z,8.03
2022-11-20T22:26:40.720Z,8.04
2022-11-20T22:29:12.363Z,8.04
2022-11-20T22:31:39.468Z,8.05
2022-11-20T22:34:06.529Z,8.06
2022-11-20T22:36:37.825Z,8.04
2022-11-20T22:39:06.059Z,8.05
2022-11-20T22:41:33.871Z,8.05
2022-11-20T22:44:04.553Z,8.05
2022-11-20T22:46:35.464Z,8.04
2022-11-20T22:49:05.722Z,8.05
2022-11-20T22:51:39.807Z,8.05
2022-11-20T22:54:07.876Z,8.08
2022-11-20T22:56:35.197Z,8.07
2022-11-20T22:59:02.600Z,8.05
2022-11-20T23:01:35.321Z,8.01
2022-11-20T23:04:07.087Z,7.96
2022-11-20T23:06:34.605Z,7.90
2022-11-20T23:09:04.651Z,7.84
2022-11-20T23:11:32.733Z,7.82
2022-11-20T23:14:12.201Z,7.80
2022-11-20T23:16:39.251Z,7.80
2022-11-20T23:19:10.551Z,7.80
2022-11-20T23:21:39.488Z,7.81
2022-11-20T23:24:07.390Z,7.82
2022-11-20T23:26:38.719Z,7.84
2022-11-20T23:29:07.081Z,7.83
2022-11-20T23:31:36.037Z,7.84
2022-11-20T23:34:03.854Z,7.87
2022-11-20T23:36:31.156Z,7.87
2022-11-20T23:38:58.209Z,7.88
2022-11-20T23:41:25.268Z,7.88
2022-11-20T23:43:53.734Z,7.86
2022-11-20T23:46:20.838Z,7.85
2022-11-20T23:48:47.867Z,7.82
2022-11-20T23:51:15.118Z,7.80
2022-11-20T23:53:42.495Z,7.78
2022-11-20T23:56:11.201Z,7.78
2022-11-20T23:58:39.218Z,7.78
